Time;durP1;ratioP1;P1;durP2;ratioP2;P2;SDS_P1;SDS_P2;PMS_P1;PMS_P2;Temp;Humidity;BMP_temperature;BMP_pressure;BME280_temperature;BME280_humidity;BME280_pressure;Samples;Min_cycle;Max_cycle;Signal;HPM_P1;HPM_P2
2023/12/17 00:01:18;;;;;;;26.05;19.08;;;;;;;;;;10299324;28;20055;-71
2023/12/17 00:06:15;;;;;;;30.75;18.48;;;;;;;;;;10292080;28;20055;-70
2023/12/17 00:11:11;;;;;;;29.67;19.65;;;;;;;;;;10302047;28;20527;-72
2023/12/17 00:16:08;;;;;;;26.90;18.80;;;;;;;;;;10297820;28;20701;-71
2023/12/17 00:21:04;;;;;;;28.75;17.92;;;;;;;;;;10309713;28;20691;-71
2023/12/17 00:26:01;;;;;;;26.23;17.77;;;;;;;;;;10304476;28;20118;-71
2023/12/17 00:30:57;;;;;;;22.05;16.48;;;;;;;;;;10302865;28;20041;-72
2023/12/17 00:35:54;;;;;;;25.85;17.55;;;;;;;;;;10284123;28;20526;-72
2023/12/17 00:40:51;;;;;;;21.60;15.55;;;;;;;;;;10310428;28;20481;-71
2023/12/17 00:45:47;;;;;;;24.15;16.40;;;;;;;;;;10300444;28;20052;-69
2023/12/17 00:50:43;;;;;;;21.02;15.88;;;;;;;;;;10308315;28;20055;-70
2023/12/17 00:55:40;;;;;;;22.70;15.48;;;;;;;;;;10309584;28;20044;-71
2023/12/17 01:00:36;;;;;;;21.00;14.18;;;;;;;;;;10301440;28;20048;-71
2023/12/17 01:05:48;;;;;;;22.92;14.57;;;;;;;;;;10305244;28;20057;-71
2023/12/17 01:10:45;;;;;;;19.95;14.32;;;;;;;;;;10277142;28;20069;-69
2023/12/17 01:15:41;;;;;;;21.50;14.35;;;;;;;;;;10305206;28;20040;-70
2023/12/17 01:20:38;;;;;;;19.17;13.27;;;;;;;;;;10313490;28;20132;-70
2023/12/17 01:25:35;;;;;;;17.58;13.52;;;;;;;;;;10299287;28;20051;-70
2023/12/17 01:30:32;;;;;;;16.65;12.55;;;;;;;;;;10302113;28;20125;-70
2023/12/17 01:35:30;;;;;;;21.58;12.52;;;;;;;;;;10292560;28;20423;-70
2023/12/17 01:40:26;;;;;;;18.58;13.50;;;;;;;;;;10296588;28;20527;-72
2023/12/17 01:45:23;;;;;;;17.15;13.50;;;;;;;;;;10302270;28;20566;-73
2023/12/17 01:50:20;;;;;;;15.65;12.68;;;;;;;;;;10310913;28;20060;-70
2023/12/17 01:55:18;;;;;;;17.73;12.77;;;;;;;;;;10311406;28;20135;-69
2023/12/17 02:00:16;;;;;;;17.15;11.57;;;;;;;;;;10303023;28;20057;-69
2023/12/17 02:05:12;;;;;;;17.02;12.38;;;;;;;;;;10297508;28;20071;-69
2023/12/17 02:10:09;;;;;;;15.18;12.43;;;;;;;;;;10303669;28;20080;-70
2023/12/17 02:15:06;;;;;;;20.27;12.00;;;;;;;;;;10293058;28;20053;-70
2023/12/17 02:20:03;;;;;;;17.63;11.48;;;;;;;;;;10310624;28;20052;-70
2023/12/17 02:24:59;;;;;;;17.70;10.60;;;;;;;;;;10303549;28;20041;-71
2023/12/17 02:29:55;;;;;;;13.02;10.73;;;;;;;;;;10299624;28;20099;-70
2023/12/17 02:34:52;;;;;;;20.70;10.80;;;;;;;;;;10301561;22;20126;-70
2023/12/17 02:39:48;;;;;;;14.85;10.05;;;;;;;;;;10294508;28;20049;-71
2023/12/17 02:44:45;;;;;;;14.10;9.05;;;;;;;;;;10300274;28;20131;-71
2023/12/17 02:49:41;;;;;;;14.10;10.88;;;;;;;;;;10322673;28;20048;-69
2023/12/17 02:54:38;;;;;;;12.02;9.48;;;;;;;;;;10312896;28;20149;-70
2023/12/17 02:59:34;;;;;;;15.77;9.02;;;;;;;;;;10298675;28;20075;-69
2023/12/17 03:04:30;;;;;;;13.43;9.98;;;;;;;;;;10284000;28;20040;-70
2023/12/17 03:09:27;;;;;;;11.82;8.48;;;;;;;;;;10311096;28;20415;-69
2023/12/17 03:14:24;;;;;;;16.15;9.40;;;;;;;;;;10308293;28;20147;-68
2023/12/17 03:19:20;;;;;;;16.85;9.10;;;;;;;;;;10299615;28;20577;-68
2023/12/17 03:24:17;;;;;;;11.07;8.80;;;;;;;;;;10291095;28;20527;-70
2023/12/17 03:29:14;;;;;;;13.98;9.32;;;;;;;;;;10302499;28;20095;-69
2023/12/17 03:34:10;;;;;;;9.50;8.50;;;;;;;;;;10292233;28;20049;-68
2023/12/17 03:39:07;;;;;;;14.63;8.70;;;;;;;;;;10304834;28;20061;-68
2023/12/17 03:44:04;;;;;;;13.50;8.57;;;;;;;;;;10308729;28;20045;-69
2023/12/17 03:49:00;;;;;;;10.77;8.57;;;;;;;;;;10308131;28;20524;-70
2023/12/17 03:53:57;;;;;;;11.55;7.72;;;;;;;;;;10291195;28;20102;-70
2023/12/17 03:58:53;;;;;;;15.45;8.57;;;;;;;;;;10300340;28;20056;-68
2023/12/17 04:03:49;;;;;;;10.60;7.75;;;;;;;;;;10296296;28;20056;-69
2023/12/17 04:08:46;;;;;;;13.13;8.85;;;;;;;;;;10296612;28;20488;-69
2023/12/17 04:13:42;;;;;;;10.60;8.27;;;;;;;;;;10298067;28;20080;-68
2023/12/17 04:18:39;;;;;;;12.85;8.18;;;;;;;;;;10307164;28;20064;-69
2023/12/17 04:23:35;;;;;;;15.55;9.05;;;;;;;;;;10275682;28;20045;-69
2023/12/17 04:28:32;;;;;;;17.67;8.82;;;;;;;;;;10302151;28;20067;-69
2023/12/17 04:33:28;;;;;;;10.93;8.30;;;;;;;;;;10289365;28;20053;-69
2023/12/17 04:38:24;;;;;;;10.40;8.10;;;;;;;;;;10299846;28;20082;-69
2023/12/17 04:43:28;;;;;;;15.35;8.48;;;;;;;;;;10306127;22;20061;-69
2023/12/17 04:48:25;;;;;;;11.23;8.13;;;;;;;;;;10251915;28;20049;-70
2023/12/17 04:53:21;;;;;;;15.48;8.60;;;;;;;;;;10265836;28;20055;-69
2023/12/17 04:58:17;;;;;;;11.02;8.43;;;;;;;;;;10268421;28;20076;-69
2023/12/17 05:03:14;;;;;;;14.38;7.72;;;;;;;;;;10269374;28;20045;-70
2023/12/17 05:08:11;;;;;;;18.05;9.27;;;;;;;;;;10268244;28;20053;-73
2023/12/17 05:13:08;;;;;;;9.55;7.78;;;;;;;;;;10263411;28;20068;-71
2023/12/17 05:18:04;;;;;;;10.18;8.38;;;;;;;;;;10266988;28;20103;-70
2023/12/17 05:23:02;;;;;;;9.70;8.70;;;;;;;;;;10262928;28;20045;-67
2023/12/17 05:27:58;;;;;;;10.88;8.18;;;;;;;;;;10264386;28;20091;-68
2023/12/17 05:32:55;;;;;;;8.80;7.90;;;;;;;;;;10267597;28;20072;-67
2023/12/17 05:37:51;;;;;;;11.68;8.27;;;;;;;;;;10260326;28;20536;-70
2023/12/17 05:42:47;;;;;;;11.82;8.55;;;;;;;;;;10273311;28;20049;-71
2023/12/17 05:47:44;;;;;;;10.30;8.73;;;;;;;;;;10275134;28;20099;-71
2023/12/17 05:52:41;;;;;;;10.50;8.45;;;;;;;;;;10270992;28;20055;-67
2023/12/17 05:57:38;;;;;;;9.63;7.75;;;;;;;;;;10276190;28;20500;-67
2023/12/17 06:02:35;;;;;;;12.73;9.02;;;;;;;;;;10274811;28;20556;-70
2023/12/17 06:07:31;;;;;;;10.63;8.05;;;;;;;;;;10274347;28;20061;-72
2023/12/17 06:12:27;;;;;;;13.70;8.55;;;;;;;;;;10274722;28;20182;-69
2023/12/17 06:17:23;;;;;;;12.50;8.60;;;;;;;;;;10267952;28;20060;-69
2023/12/17 06:22:20;;;;;;;8.43;7.63;;;;;;;;;;10274874;28;20060;-68
2023/12/17 06:27:17;;;;;;;10.25;7.50;;;;;;;;;;10271872;28;20049;-71
2023/12/17 06:32:14;;;;;;;12.55;8.07;;;;;;;;;;10273648;28;20110;-72
2023/12/17 06:37:11;;;;;;;11.07;7.70;;;;;;;;;;10264409;28;20053;-70
2023/12/17 06:42:09;;;;;;;11.18;7.78;;;;;;;;;;10294430;22;20053;-70
2023/12/17 06:47:05;;;;;;;8.82;7.72;;;;;;;;;;10257656;28;20057;-71
2023/12/17 06:52:17;;;;;;;11.87;7.43;;;;;;;;;;10259640;28;20075;-71
2023/12/17 06:57:14;;;;;;;13.35;7.95;;;;;;;;;;10269421;28;20106;-71
2023/12/17 07:02:10;;;;;;;9.27;7.97;;;;;;;;;;10265597;28;20049;-73
2023/12/17 07:07:06;;;;;;;8.75;7.93;;;;;;;;;;10264153;28;20057;-73
2023/12/17 07:12:03;;;;;;;10.25;6.78;;;;;;;;;;10266926;28;20045;-72
2023/12/17 07:16:59;;;;;;;10.05;7.57;;;;;;;;;;10256795;28;20087;-72
2023/12/17 07:21:55;;;;;;;16.70;7.03;;;;;;;;;;10258400;28;20049;-72
2023/12/17 07:26:52;;;;;;;14.18;8.23;;;;;;;;;;10265716;28;20103;-71
2023/12/17 07:31:48;;;;;;;9.98;7.72;;;;;;;;;;10264970;28;20132;-72
2023/12/17 07:36:45;;;;;;;14.65;7.72;;;;;;;;;;10261102;28;20536;-73
2023/12/17 07:41:41;;;;;;;12.38;8.10;;;;;;;;;;10262173;28;20056;-73
2023/12/17 07:46:37;;;;;;;9.95;7.93;;;;;;;;;;10255231;28;20065;-71
2023/12/17 07:56:39;;;;;;;9.23;7.60;;;;;;;;;;10703903;23;20083;-71
2023/12/17 08:01:35;;;;;;;10.93;7.82;;;;;;;;;;10307090;28;20048;-74
2023/12/17 08:06:32;;;;;;;12.77;9.02;;;;;;;;;;10271681;28;20056;-72
2023/12/17 08:11:32;;;;;;;9.30;8.40;;;;;;;;;;10258736;28;20514;-70
2023/12/17 08:16:29;;;;;;;10.00;9.00;;;;;;;;;;10266043;28;20060;-72
2023/12/17 08:21:26;;;;;;;13.18;8.45;;;;;;;;;;10249375;28;20058;-71
2023/12/17 08:26:22;;;;;;;13.93;9.55;;;;;;;;;;10267568;28;20459;-71
2023/12/17 08:31:37;;;;;;;14.18;8.88;;;;;;;;;;10298529;22;20024;-71
2023/12/17 08:36:33;;;;;;;14.23;9.77;;;;;;;;;;10275768;28;20049;-74
2023/12/17 08:41:33;;;;;;;10.95;9.52;;;;;;;;;;10285797;28;20535;-73
2023/12/17 08:46:29;;;;;;;12.63;10.13;;;;;;;;;;10256254;28;20060;-75
2023/12/17 08:51:26;;;;;;;10.90;9.00;;;;;;;;;;10260842;28;20103;-73
2023/12/17 08:56:22;;;;;;;11.40;9.50;;;;;;;;;;10260125;28;20091;-73
2023/12/17 09:01:19;;;;;;;12.10;9.82;;;;;;;;;;10260595;28;20122;-73
2023/12/17 09:06:15;;;;;;;10.65;9.50;;;;;;;;;;10262203;28;20048;-76
2023/12/17 09:11:12;;;;;;;16.63;10.63;;;;;;;;;;10245589;28;20056;-78
2023/12/17 09:16:08;;;;;;;12.55;9.73;;;;;;;;;;10274455;28;20064;-78
2023/12/17 09:21:05;;;;;;;15.25;10.02;;;;;;;;;;10261499;28;20053;-79
2023/12/17 09:26:02;;;;;;;13.52;10.95;;;;;;;;;;10263381;28;20071;-78
2023/12/17 11:24:44;;;;;;;26.67;20.23;;;;;;;;;;11208446;22;20045;-78
2023/12/17 11:29:41;;;;;;;19.08;16.98;;;;;;;;;;10230620;28;20080;-78
2023/12/17 13:43:30;;;;;;;21.85;15.18;;;;;;;;;;11179946;22;20029;-78
2023/12/17 13:48:27;;;;;;;24.45;14.60;;;;;;;;;;10308394;28;20056;-78
2023/12/17 16:21:45;;;;;;;16.88;13.90;;;;;;;;;;10298859;28;20052;-77
2023/12/17 21:41:55;;;;;;;22.85;12.77;;;;;;;;;;4515295;22;20413;-74
2023/12/17 21:53:59;;;;;;;25.50;12.27;;;;;;;;;;9870882;28;20439;-72
2023/12/17 21:58:55;;;;;;;21.55;11.18;;;;;;;;;;10101428;28;20057;-73
2023/12/17 22:03:51;;;;;;;16.25;11.38;;;;;;;;;;10229430;22;20412;-73
2023/12/17 22:08:48;;;;;;;18.52;11.60;;;;;;;;;;10282323;28;20067;-73
2023/12/17 22:13:56;;;;;;;19.27;11.30;;;;;;;;;;10287001;28;20423;-73
2023/12/17 22:18:52;;;;;;;24.27;11.40;;;;;;;;;;10293050;28;20080;-73
2023/12/17 22:23:49;;;;;;;26.52;11.45;;;;;;;;;;10280659;28;20053;-72
2023/12/17 22:28:45;;;;;;;24.10;11.60;;;;;;;;;;10308386;28;20040;-73
2023/12/17 22:33:42;;;;;;;27.83;12.15;;;;;;;;;;10270050;28;20544;-72
2023/12/17 22:38:38;;;;;;;24.73;11.27;;;;;;;;;;10282699;28;20070;-72
2023/12/17 22:43:36;;;;;;;20.45;11.77;;;;;;;;;;10299720;22;20054;-71
2023/12/17 22:48:35;;;;;;;22.15;12.40;;;;;;;;;;10293350;28;20060;-70
2023/12/17 22:53:31;;;;;;;22.75;12.93;;;;;;;;;;10288426;28;20081;-69
2023/12/17 22:58:28;;;;;;;22.73;11.63;;;;;;;;;;10293765;28;20049;-70
2023/12/17 23:03:24;;;;;;;19.02;11.45;;;;;;;;;;10297757;28;20068;-70
2023/12/17 23:08:20;;;;;;;23.23;12.02;;;;;;;;;;10294282;28;20053;-70
2023/12/17 23:13:17;;;;;;;21.40;10.98;;;;;;;;;;10283231;28;20048;-71
2023/12/17 23:18:13;;;;;;;25.10;11.95;;;;;;;;;;10294908;28;20064;-71
2023/12/17 23:23:10;;;;;;;18.52;12.13;;;;;;;;;;10284304;28;20053;-71
2023/12/17 23:28:06;;;;;;;26.25;12.35;;;;;;;;;;10292584;28;20060;-71
2023/12/17 23:33:02;;;;;;;26.38;11.98;;;;;;;;;;10292302;28;20551;-71
2023/12/17 23:37:59;;;;;;;24.83;12.45;;;;;;;;;;10283354;28;20080;-72
2023/12/17 23:42:55;;;;;;;25.23;12.10;;;;;;;;;;10298354;28;20076;-71
2023/12/17 23:47:52;;;;;;;28.98;13.63;;;;;;;;;;10290696;28;20048;-70
2023/12/17 23:52:48;;;;;;;28.13;12.88;;;;;;;;;;10277166;28;20059;-69
2023/12/17 23:57:44;;;;;;;20.67;12.35;;;;;;;;;;10298055;28;20680;-69
